Aviation Digital Data Service (ADDS)

Output produced by METARs form (2203 UTC 16 February 2019)
found at http://www.aviationweather.gov/metar/data/
 
Forecast for: EDDT (BERLIN/TEGEL (FA, DE)
Text: TAF EDDT 161700Z 1618/1718 23004KT CAVOK
Forecast period: 1800 UTC 16 February 2019 to 1800 UTC 17 February 2019
Forecast type: FROM: standard forecast or significant change
Winds: from the SW (230 degrees) at 5 MPH (4 knots; 2.1 m/s)
Visibility: 6 or more miles 10+ km)
Ceiling: unknown
Clouds: missing
Weather: NSW  (no significant weather)
Text: PROB30
Forecast period: 0400 to 0800 UTC 17 February 2019
Forecast type: TEMPORARY: The following changes expected for less than half the time period
Visibility: missing
Ceiling: 1000 feet AGL
Clouds: broken clouds at 1000 feet AGL
Weather: no significant weather forecast for this period